sensor_id;sensor_type;location;lat;lon;timestamp;P1;durP1;ratioP1;P2;durP2;ratioP2
32850;SDS011;19202;48.992;8.390;2023-01-04T00:04:59;6.60;;;3.92;;
32850;SDS011;19202;48.992;8.390;2023-01-04T00:10:37;6.25;;;3.78;;
32850;SDS011;19202;48.992;8.390;2023-01-04T00:16:17;7.57;;;3.38;;
32850;SDS011;19202;48.992;8.390;2023-01-04T00:21:57;6.05;;;3.70;;
32850;SDS011;19202;48.992;8.390;2023-01-04T00:27:35;8.13;;;3.90;;
32850;SDS011;19202;48.992;8.390;2023-01-04T00:33:13;5.88;;;3.15;;
32850;SDS011;19202;48.992;8.390;2023-01-04T00:38:51;6.00;;;3.47;;
32850;SDS011;19202;48.992;8.390;2023-01-04T00:44:43;16.35;;;6.65;;
32850;SDS011;19202;48.992;8.390;2023-01-04T00:50:21;6.30;;;3.60;;
32850;SDS011;19202;48.992;8.390;2023-01-04T00:55:59;7.72;;;3.58;;
32850;SDS011;19202;48.992;8.390;2023-01-04T01:01:38;5.95;;;3.80;;
32850;SDS011;19202;48.992;8.390;2023-01-04T01:07:17;8.43;;;4.15;;
32850;SDS011;19202;48.992;8.390;2023-01-04T01:12:55;10.65;;;5.68;;
32850;SDS011;19202;48.992;8.390;2023-01-04T01:18:33;7.30;;;4.15;;
32850;SDS011;19202;48.992;8.390;2023-01-04T01:24:14;6.38;;;4.07;;
32850;SDS011;19202;48.992;8.390;2023-01-04T01:29:53;5.55;;;3.70;;
32850;SDS011;19202;48.992;8.390;2023-01-04T01:35:32;7.53;;;4.05;;
32850;SDS011;19202;48.992;8.390;2023-01-04T01:41:24;7.45;;;3.67;;
32850;SDS011;19202;48.992;8.390;2023-01-04T01:47:04;6.72;;;3.92;;
32850;SDS011;19202;48.992;8.390;2023-01-04T01:52:42;5.63;;;3.60;;
32850;SDS011;19202;48.992;8.390;2023-01-04T02:04:29;7.43;;;4.43;;
32850;SDS011;19202;48.992;8.390;2023-01-04T02:10:08;6.35;;;3.70;;
32850;SDS011;19202;48.992;8.390;2023-01-04T02:27:56;6.85;;;4.20;;
32850;SDS011;19202;48.992;8.390;2023-01-04T02:45:54;11.38;;;5.80;;
32850;SDS011;19202;48.992;8.390;2023-01-04T02:51:35;12.40;;;6.88;;
32850;SDS011;19202;48.992;8.390;2023-01-04T03:03:17;17.23;;;8.93;;
32850;SDS011;19202;48.992;8.390;2023-01-04T03:09:23;20.42;;;10.38;;
32850;SDS011;19202;48.992;8.390;2023-01-04T03:15:11;20.83;;;9.82;;
32850;SDS011;19202;48.992;8.390;2023-01-04T03:20:55;18.83;;;9.80;;
32850;SDS011;19202;48.992;8.390;2023-01-04T03:26:37;19.48;;;9.90;;
32850;SDS011;19202;48.992;8.390;2023-01-04T03:32:46;20.65;;;11.63;;
32850;SDS011;19202;48.992;8.390;2023-01-04T03:38:57;17.85;;;9.80;;
32850;SDS011;19202;48.992;8.390;2023-01-04T03:45:14;17.38;;;9.45;;
32850;SDS011;19202;48.992;8.390;2023-01-04T03:51:22;21.60;;;8.88;;
32850;SDS011;19202;48.992;8.390;2023-01-04T03:57:03;16.27;;;9.30;;
32850;SDS011;19202;48.992;8.390;2023-01-04T04:02:43;16.52;;;8.40;;
32850;SDS011;19202;48.992;8.390;2023-01-04T04:08:23;13.70;;;8.13;;
32850;SDS011;19202;48.992;8.390;2023-01-04T04:14:07;17.33;;;8.90;;
32850;SDS011;19202;48.992;8.390;2023-01-04T04:19:46;18.27;;;9.43;;
32850;SDS011;19202;48.992;8.390;2023-01-04T04:25:23;14.93;;;8.05;;
32850;SDS011;19202;48.992;8.390;2023-01-04T04:31:01;17.75;;;8.25;;
32850;SDS011;19202;48.992;8.390;2023-01-04T04:36:39;16.30;;;8.13;;
32850;SDS011;19202;48.992;8.390;2023-01-04T04:42:17;12.73;;;7.65;;
32850;SDS011;19202;48.992;8.390;2023-01-04T04:47:55;13.30;;;6.65;;
32850;SDS011;19202;48.992;8.390;2023-01-04T04:53:33;8.70;;;5.07;;
32850;SDS011;19202;48.992;8.390;2023-01-04T04:59:10;9.65;;;4.95;;
32850;SDS011;19202;48.992;8.390;2023-01-04T05:04:49;8.50;;;4.30;;
32850;SDS011;19202;48.992;8.390;2023-01-04T05:10:26;6.47;;;3.67;;
32850;SDS011;19202;48.992;8.390;2023-01-04T05:16:05;6.57;;;3.60;;
32850;SDS011;19202;48.992;8.390;2023-01-04T05:21:44;4.20;;;3.03;;
32850;SDS011;19202;48.992;8.390;2023-01-04T05:27:22;4.90;;;2.78;;
32850;SDS011;19202;48.992;8.390;2023-01-04T05:33:00;4.43;;;2.50;;
32850;SDS011;19202;48.992;8.390;2023-01-04T05:38:39;4.95;;;2.28;;
32850;SDS011;19202;48.992;8.390;2023-01-04T05:44:17;1.73;;;1.60;;
32850;SDS011;19202;48.992;8.390;2023-01-04T05:49:55;6.38;;;1.63;;
32850;SDS011;19202;48.992;8.390;2023-01-04T05:55:33;2.15;;;1.73;;
32850;SDS011;19202;48.992;8.390;2023-01-04T06:01:11;3.63;;;1.80;;
32850;SDS011;19202;48.992;8.390;2023-01-04T06:06:49;2.85;;;1.42;;
32850;SDS011;19202;48.992;8.390;2023-01-04T06:12:27;2.17;;;1.15;;
32850;SDS011;19202;48.992;8.390;2023-01-04T06:18:05;1.88;;;1.45;;
32850;SDS011;19202;48.992;8.390;2023-01-04T06:23:42;2.47;;;1.40;;
32850;SDS011;19202;48.992;8.390;2023-01-04T06:29:20;2.45;;;1.42;;
32850;SDS011;19202;48.992;8.390;2023-01-04T06:34:58;2.55;;;1.30;;
32850;SDS011;19202;48.992;8.390;2023-01-04T06:40:36;2.70;;;1.45;;
32850;SDS011;19202;48.992;8.390;2023-01-04T06:46:14;3.33;;;1.30;;
32850;SDS011;19202;48.992;8.390;2023-01-04T06:51:52;1.33;;;1.23;;
32850;SDS011;19202;48.992;8.390;2023-01-04T06:57:30;1.92;;;1.40;;
32850;SDS011;19202;48.992;8.390;2023-01-04T07:03:08;3.92;;;1.10;;
32850;SDS011;19202;48.992;8.390;2023-01-04T07:08:46;2.80;;;1.20;;
32850;SDS011;19202;48.992;8.390;2023-01-04T07:14:24;3.63;;;1.40;;
32850;SDS011;19202;48.992;8.390;2023-01-04T07:20:02;1.85;;;1.05;;
32850;SDS011;19202;48.992;8.390;2023-01-04T07:25:41;1.05;;;0.98;;
32850;SDS011;19202;48.992;8.390;2023-01-04T07:31:19;1.30;;;1.20;;
32850;SDS011;19202;48.992;8.390;2023-01-04T07:36:56;1.60;;;1.10;;
32850;SDS011;19202;48.992;8.390;2023-01-04T07:42:34;4.13;;;1.45;;
32850;SDS011;19202;48.992;8.390;2023-01-04T07:48:13;1.90;;;1.35;;
32850;SDS011;19202;48.992;8.390;2023-01-04T07:53:51;1.63;;;1.00;;
32850;SDS011;19202;48.992;8.390;2023-01-04T07:59:28;2.45;;;0.90;;
32850;SDS011;19202;48.992;8.390;2023-01-04T08:05:06;1.65;;;0.98;;
32850;SDS011;19202;48.992;8.390;2023-01-04T08:10:44;1.42;;;0.90;;
32850;SDS011;19202;48.992;8.390;2023-01-04T08:16:24;2.58;;;1.10;;
32850;SDS011;19202;48.992;8.390;2023-01-04T08:22:08;2.72;;;0.88;;
32850;SDS011;19202;48.992;8.390;2023-01-04T08:27:45;1.42;;;0.90;;
32850;SDS011;19202;48.992;8.390;2023-01-04T08:33:23;1.30;;;0.98;;
32850;SDS011;19202;48.992;8.390;2023-01-04T08:39:02;1.88;;;0.95;;
32850;SDS011;19202;48.992;8.390;2023-01-04T08:44:42;1.67;;;0.93;;
32850;SDS011;19202;48.992;8.390;2023-01-04T08:50:20;2.35;;;1.05;;
32850;SDS011;19202;48.992;8.390;2023-01-04T08:55:58;1.25;;;0.80;;
32850;SDS011;19202;48.992;8.390;2023-01-04T09:01:39;0.75;;;0.70;;
32850;SDS011;19202;48.992;8.390;2023-01-04T09:07:18;5.32;;;0.90;;
32850;SDS011;19202;48.992;8.390;2023-01-04T09:12:56;1.90;;;0.90;;
32850;SDS011;19202;48.992;8.390;2023-01-04T09:18:34;2.58;;;0.90;;
32850;SDS011;19202;48.992;8.390;2023-01-04T09:24:13;1.00;;;0.90;;
32850;SDS011;19202;48.992;8.390;2023-01-04T09:29:51;3.00;;;1.00;;
32850;SDS011;19202;48.992;8.390;2023-01-04T09:35:28;2.13;;;1.00;;
32850;SDS011;19202;48.992;8.390;2023-01-04T09:41:09;1.88;;;0.98;;
32850;SDS011;19202;48.992;8.390;2023-01-04T09:46:52;3.00;;;1.20;;
32850;SDS011;19202;48.992;8.390;2023-01-04T09:52:48;1.92;;;1.00;;
32850;SDS011;19202;48.992;8.390;2023-01-04T09:58:32;2.15;;;1.20;;
32850;SDS011;19202;48.992;8.390;2023-01-04T10:04:22;3.97;;;1.27;;
32850;SDS011;19202;48.992;8.390;2023-01-04T10:10:20;1.77;;;1.10;;
32850;SDS011;19202;48.992;8.390;2023-01-04T10:16:29;2.83;;;1.02;;
32850;SDS011;19202;48.992;8.390;2023-01-04T10:22:27;2.45;;;0.90;;
32850;SDS011;19202;48.992;8.390;2023-01-04T10:34:03;1.70;;;0.85;;
32850;SDS011;19202;48.992;8.390;2023-01-04T10:39:59;3.10;;;1.00;;
32850;SDS011;19202;48.992;8.390;2023-01-04T10:45:56;1.50;;;1.10;;
32850;SDS011;19202;48.992;8.390;2023-01-04T10:57:59;1.98;;;1.00;;
32850;SDS011;19202;48.992;8.390;2023-01-04T11:09:52;1.35;;;0.77;;
32850;SDS011;19202;48.992;8.390;2023-01-04T11:15:37;1.17;;;0.90;;
32850;SDS011;19202;48.992;8.390;2023-01-04T11:21:16;2.20;;;1.00;;
32850;SDS011;19202;48.992;8.390;2023-01-04T11:27:01;1.55;;;1.05;;
32850;SDS011;19202;48.992;8.390;2023-01-04T11:32:49;1.27;;;1.00;;
32850;SDS011;19202;48.992;8.390;2023-01-04T11:38:40;1.40;;;0.98;;
32850;SDS011;19202;48.992;8.390;2023-01-04T11:44:32;5.43;;;1.10;;
32850;SDS011;19202;48.992;8.390;2023-01-04T11:50:20;3.55;;;0.90;;
32850;SDS011;19202;48.992;8.390;2023-01-04T11:56:16;1.60;;;1.20;;
32850;SDS011;19202;48.992;8.390;2023-01-04T12:08:03;1.08;;;0.98;;
32850;SDS011;19202;48.992;8.390;2023-01-04T12:13:42;1.90;;;1.30;;
32850;SDS011;19202;48.992;8.390;2023-01-04T12:19:20;18.40;;;7.20;;
32850;SDS011;19202;48.992;8.390;2023-01-04T12:25:00;2.30;;;1.00;;
32850;SDS011;19202;48.992;8.390;2023-01-04T12:30:41;5.30;;;2.65;;
32850;SDS011;19202;48.992;8.390;2023-01-04T12:42:17;4.03;;;1.13;;
32850;SDS011;19202;48.992;8.390;2023-01-04T12:48:31;1.40;;;1.02;;
32850;SDS011;19202;48.992;8.390;2023-01-04T12:54:24;1.63;;;0.90;;
32850;SDS011;19202;48.992;8.390;2023-01-04T13:00:09;2.05;;;1.00;;
32850;SDS011;19202;48.992;8.390;2023-01-04T13:06:03;1.02;;;0.93;;
32850;SDS011;19202;48.992;8.390;2023-01-04T13:11:48;2.90;;;1.40;;
32850;SDS011;19202;48.992;8.390;2023-01-04T13:17:38;1.83;;;1.00;;
32850;SDS011;19202;48.992;8.390;2023-01-04T13:23:17;1.25;;;0.90;;
32850;SDS011;19202;48.992;8.390;2023-01-04T13:35:11;1.48;;;1.20;;
32850;SDS011;19202;48.992;8.390;2023-01-04T13:40:51;1.77;;;1.00;;
32850;SDS011;19202;48.992;8.390;2023-01-04T13:46:29;1.33;;;1.00;;
32850;SDS011;19202;48.992;8.390;2023-01-04T13:52:25;2.25;;;1.10;;
32850;SDS011;19202;48.992;8.390;2023-01-04T13:58:06;2.10;;;1.20;;
32850;SDS011;19202;48.992;8.390;2023-01-04T14:03:54;2.13;;;1.10;;
32850;SDS011;19202;48.992;8.390;2023-01-04T14:09:35;7.95;;;2.72;;
32850;SDS011;19202;48.992;8.390;2023-01-04T14:15:21;2.70;;;1.30;;
32850;SDS011;19202;48.992;8.390;2023-01-04T14:21:01;1.95;;;1.00;;
32850;SDS011;19202;48.992;8.390;2023-01-04T14:26:39;1.08;;;0.90;;
32850;SDS011;19202;48.992;8.390;2023-01-04T14:32:20;3.90;;;1.17;;
32850;SDS011;19202;48.992;8.390;2023-01-04T14:38:02;5.20;;;1.55;;
32850;SDS011;19202;48.992;8.390;2023-01-04T14:43:44;1.42;;;1.10;;
32850;SDS011;19202;48.992;8.390;2023-01-04T14:49:26;1.42;;;1.02;;
32850;SDS011;19202;48.992;8.390;2023-01-04T14:55:04;1.52;;;1.05;;
32850;SDS011;19202;48.992;8.390;2023-01-04T15:00:43;1.02;;;0.90;;
32850;SDS011;19202;48.992;8.390;2023-01-04T15:06:21;1.20;;;1.10;;
32850;SDS011;19202;48.992;8.390;2023-01-04T15:11:59;1.60;;;0.93;;
32850;SDS011;19202;48.992;8.390;2023-01-04T15:17:37;3.05;;;1.55;;
32850;SDS011;19202;48.992;8.390;2023-01-04T15:23:15;3.38;;;1.00;;
32850;SDS011;19202;48.992;8.390;2023-01-04T15:28:53;1.75;;;0.98;;
32850;SDS011;19202;48.992;8.390;2023-01-04T15:34:31;2.83;;;1.10;;
32850;SDS011;19202;48.992;8.390;2023-01-04T15:40:09;2.72;;;1.20;;
32850;SDS011;19202;48.992;8.390;2023-01-04T15:45:48;1.38;;;0.93;;
32850;SDS011;19202;48.992;8.390;2023-01-04T15:51:26;1.15;;;1.05;;
32850;SDS011;19202;48.992;8.390;2023-01-04T15:57:04;1.23;;;0.80;;
32850;SDS011;19202;48.992;8.390;2023-01-04T16:02:42;3.33;;;1.25;;
32850;SDS011;19202;48.992;8.390;2023-01-04T16:08:20;0.85;;;0.82;;
32850;SDS011;19202;48.992;8.390;2023-01-04T16:13:57;1.63;;;1.30;;
32850;SDS011;19202;48.992;8.390;2023-01-04T16:19:35;1.08;;;0.98;;
32850;SDS011;19202;48.992;8.390;2023-01-04T16:25:13;1.27;;;1.02;;
32850;SDS011;19202;48.992;8.390;2023-01-04T16:30:52;1.00;;;0.90;;
32850;SDS011;19202;48.992;8.390;2023-01-04T16:36:32;0.80;;;0.80;;
32850;SDS011;19202;48.992;8.390;2023-01-04T16:42:10;1.75;;;0.90;;
32850;SDS011;19202;48.992;8.390;2023-01-04T16:47:48;1.08;;;0.90;;
32850;SDS011;19202;48.992;8.390;2023-01-04T16:53:28;2.60;;;1.60;;
32850;SDS011;19202;48.992;8.390;2023-01-04T16:59:06;1.85;;;1.20;;
32850;SDS011;19202;48.992;8.390;2023-01-04T17:04:45;1.50;;;1.00;;
32850;SDS011;19202;48.992;8.390;2023-01-04T17:10:27;1.08;;;0.90;;
32850;SDS011;19202;48.992;8.390;2023-01-04T17:16:06;2.40;;;1.08;;
32850;SDS011;19202;48.992;8.390;2023-01-04T17:21:45;0.85;;;0.85;;
32850;SDS011;19202;48.992;8.390;2023-01-04T17:27:24;2.72;;;1.02;;
32850;SDS011;19202;48.992;8.390;2023-01-04T17:33:02;1.10;;;0.93;;
32850;SDS011;19202;48.992;8.390;2023-01-04T17:38:40;0.90;;;0.90;;
32850;SDS011;19202;48.992;8.390;2023-01-04T17:44:18;3.58;;;1.33;;
32850;SDS011;19202;48.992;8.390;2023-01-04T17:49:56;1.08;;;0.98;;
32850;SDS011;19202;48.992;8.390;2023-01-04T17:55:34;1.45;;;1.00;;
32850;SDS011;19202;48.992;8.390;2023-01-04T18:01:14;1.08;;;0.98;;
32850;SDS011;19202;48.992;8.390;2023-01-04T18:06:52;2.80;;;1.10;;
32850;SDS011;19202;48.992;8.390;2023-01-04T18:12:31;1.83;;;1.00;;
32850;SDS011;19202;48.992;8.390;2023-01-04T18:18:09;1.20;;;1.10;;
32850;SDS011;19202;48.992;8.390;2023-01-04T18:23:47;1.33;;;1.00;;
32850;SDS011;19202;48.992;8.390;2023-01-04T18:29:26;3.22;;;2.20;;
32850;SDS011;19202;48.992;8.390;2023-01-04T18:35:05;2.85;;;1.30;;
32850;SDS011;19202;48.992;8.390;2023-01-04T18:40:44;2.10;;;1.10;;
32850;SDS011;19202;48.992;8.390;2023-01-04T18:46:23;1.67;;;1.23;;
32850;SDS011;19202;48.992;8.390;2023-01-04T18:52:01;1.48;;;1.08;;
32850;SDS011;19202;48.992;8.390;2023-01-04T18:57:39;2.50;;;1.30;;
32850;SDS011;19202;48.992;8.390;2023-01-04T19:03:17;3.75;;;1.10;;
32850;SDS011;19202;48.992;8.390;2023-01-04T19:08:55;1.77;;;1.23;;
32850;SDS011;19202;48.992;8.390;2023-01-04T19:14:33;4.85;;;1.48;;
32850;SDS011;19202;48.992;8.390;2023-01-04T19:20:17;7.40;;;1.67;;
32850;SDS011;19202;48.992;8.390;2023-01-04T19:25:55;2.25;;;1.33;;
32850;SDS011;19202;48.992;8.390;2023-01-04T19:31:33;1.83;;;1.27;;
32850;SDS011;19202;48.992;8.390;2023-01-04T19:37:12;1.23;;;1.00;;
32850;SDS011;19202;48.992;8.390;2023-01-04T19:42:50;2.50;;;1.10;;
32850;SDS011;19202;48.992;8.390;2023-01-04T19:48:29;1.52;;;1.20;;
32850;SDS011;19202;48.992;8.390;2023-01-04T19:54:07;3.17;;;1.33;;
32850;SDS011;19202;48.992;8.390;2023-01-04T19:59:46;3.42;;;1.67;;
32850;SDS011;19202;48.992;8.390;2023-01-04T20:05:24;2.60;;;1.20;;
32850;SDS011;19202;48.992;8.390;2023-01-04T20:11:03;2.30;;;1.15;;
32850;SDS011;19202;48.992;8.390;2023-01-04T20:16:41;0.88;;;0.80;;
32850;SDS011;19202;48.992;8.390;2023-01-04T20:22:19;2.38;;;0.95;;
32850;SDS011;19202;48.992;8.390;2023-01-04T20:27:57;1.00;;;0.90;;
32850;SDS011;19202;48.992;8.390;2023-01-04T20:33:35;2.97;;;1.10;;
32850;SDS011;19202;48.992;8.390;2023-01-04T20:39:13;6.45;;;1.10;;
32850;SDS011;19202;48.992;8.390;2023-01-04T20:44:51;2.25;;;1.10;;
32850;SDS011;19202;48.992;8.390;2023-01-04T20:50:30;2.22;;;1.30;;
32850;SDS011;19202;48.992;8.390;2023-01-04T20:56:13;3.20;;;1.20;;
32850;SDS011;19202;48.992;8.390;2023-01-04T21:01:52;2.55;;;1.00;;
32850;SDS011;19202;48.992;8.390;2023-01-04T21:07:30;1.25;;;0.88;;
32850;SDS011;19202;48.992;8.390;2023-01-04T21:13:08;1.45;;;1.10;;
32850;SDS011;19202;48.992;8.390;2023-01-04T21:18:48;0.80;;;0.80;;
32850;SDS011;19202;48.992;8.390;2023-01-04T21:24:26;1.52;;;0.95;;
32850;SDS011;19202;48.992;8.390;2023-01-04T21:30:04;1.48;;;1.25;;
32850;SDS011;19202;48.992;8.390;2023-01-04T21:35:42;3.58;;;2.35;;
32850;SDS011;19202;48.992;8.390;2023-01-04T21:41:24;0.82;;;0.80;;
32850;SDS011;19202;48.992;8.390;2023-01-04T21:47:02;2.65;;;0.90;;
32850;SDS011;19202;48.992;8.390;2023-01-04T21:52:40;0.80;;;0.80;;
32850;SDS011;19202;48.992;8.390;2023-01-04T21:58:18;1.20;;;0.88;;
32850;SDS011;19202;48.992;8.390;2023-01-04T22:04:03;0.90;;;0.90;;
32850;SDS011;19202;48.992;8.390;2023-01-04T22:09:42;0.80;;;0.80;;
32850;SDS011;19202;48.992;8.390;2023-01-04T22:15:19;0.60;;;0.60;;
32850;SDS011;19202;48.992;8.390;2023-01-04T22:21:05;0.82;;;0.80;;
32850;SDS011;19202;48.992;8.390;2023-01-04T22:26:43;2.47;;;1.20;;
32850;SDS011;19202;48.992;8.390;2023-01-04T22:32:21;1.75;;;1.15;;
32850;SDS011;19202;48.992;8.390;2023-01-04T22:37:59;2.20;;;0.98;;
32850;SDS011;19202;48.992;8.390;2023-01-04T22:43:37;1.67;;;0.70;;
32850;SDS011;19202;48.992;8.390;2023-01-04T22:49:15;3.63;;;1.27;;
32850;SDS011;19202;48.992;8.390;2023-01-04T22:54:53;1.30;;;1.00;;
32850;SDS011;19202;48.992;8.390;2023-01-04T23:00:31;0.85;;;0.70;;
32850;SDS011;19202;48.992;8.390;2023-01-04T23:06:10;0.98;;;0.80;;
32850;SDS011;19202;48.992;8.390;2023-01-04T23:11:49;0.90;;;0.80;;
32850;SDS011;19202;48.992;8.390;2023-01-04T23:17:27;0.70;;;0.70;;
32850;SDS011;19202;48.992;8.390;2023-01-04T23:23:05;1.38;;;0.95;;
32850;SDS011;19202;48.992;8.390;2023-01-04T23:28:43;0.60;;;0.60;;
32850;SDS011;19202;48.992;8.390;2023-01-04T23:34:22;0.88;;;0.63;;
32850;SDS011;19202;48.992;8.390;2023-01-04T23:40:00;0.65;;;0.65;;
32850;SDS011;19202;48.992;8.390;2023-01-04T23:45:38;0.68;;;0.68;;
32850;SDS011;19202;48.992;8.390;2023-01-04T23:51:16;0.60;;;0.60;;
32850;SDS011;19202;48.992;8.390;2023-01-04T23:56:54;3.13;;;1.50;;
